Time;durP1;ratioP1;P1;durP2;ratioP2;P2;SDS_P1;SDS_P2;PMS_P1;PMS_P2;Temp;Humidity;BMP_temperature;BMP_pressure;BME280_temperature;BME280_humidity;BME280_pressure;Samples;Min_cycle;Max_cycle;Signal;HPM_P1;HPM_P2
2021/03/18 00:01:40;;;;;;;10.48;6.10;;;;;;;0.40;78.80;96170.22;5082864;28;20056;-50
2021/03/18 00:04:12;;;;;;;8.05;4.90;;;;;;;0.36;78.85;96166.50;5077018;28;20104;-47
2021/03/18 00:06:40;;;;;;;10.63;6.57;;;;;;;0.14;79.88;96163.22;5092783;28;20048;-43
2021/03/18 00:09:10;;;;;;;8.32;5.25;;;;;;;0.21;79.61;96164.56;5090314;28;20159;-49
2021/03/18 00:11:38;;;;;;;10.35;5.53;;;;;;;0.33;79.17;96160.88;5088474;28;20040;-46
2021/03/18 00:14:06;;;;;;;10.98;5.47;;;;;;;-0.05;80.71;96157.53;5094127;28;20048;-51
2021/03/18 00:16:33;;;;;;;12.38;6.07;;;;;;;0.19;79.70;96156.03;5093986;28;20055;-50
2021/03/18 00:19:00;;;;;;;8.35;5.55;;;;;;;0.22;79.91;96160.03;5086647;28;20139;-47
2021/03/18 00:21:27;;;;;;;8.68;5.70;;;;;;;0.08;80.43;96157.06;5086107;28;20234;-46
2021/03/18 00:23:53;;;;;;;11.27;6.30;;;;;;;0.07;80.53;96158.13;5080671;28;20059;-49
2021/03/18 00:26:25;;;;;;;10.20;5.72;;;;;;;0.03;81.05;96159.69;5089086;28;20052;-46
2021/03/18 00:28:52;;;;;;;10.38;5.90;;;;;;;0.05;80.77;96156.78;5073115;28;20052;-46
2021/03/18 00:31:22;;;;;;;11.10;6.55;;;;;;;-0.06;81.27;96163.91;5073669;28;20110;-47
2021/03/18 00:33:49;;;;;;;9.68;6.10;;;;;;;-0.14;81.32;96151.09;5084026;28;20532;-47
2021/03/18 00:36:16;;;;;;;11.63;6.90;;;;;;;-0.26;82.16;96159.28;5094022;28;20068;-49
2021/03/18 00:38:43;;;;;;;9.65;6.40;;;;;;;-0.11;81.76;96148.72;5083702;28;20056;-48
2021/03/18 00:41:10;;;;;;;11.00;6.90;;;;;;;-0.16;82.41;96153.19;5073811;28;20044;-48
2021/03/18 00:43:38;;;;;;;12.70;7.97;;;;;;;-0.06;81.48;96148.75;5078713;22;20086;-47
2021/03/18 00:46:06;;;;;;;9.90;6.38;;;;;;;-0.22;82.33;96152.41;5071102;28;20052;-46
2021/03/18 00:48:35;;;;;;;11.55;6.75;;;;;;;-0.26;82.05;96148.63;5069183;28;20063;-46
2021/03/18 00:51:10;;;;;;;11.45;6.72;;;;;;;-0.34;82.46;96152.59;5065828;28;20080;-45
2021/03/18 00:53:43;;;;;;;10.63;6.78;;;;;;;-0.39;83.41;96155.22;5069123;28;20072;-46
2021/03/18 00:56:12;;;;;;;;;;;;;;;-0.04;81.03;96145.81;5066991;28;20048;-45
2021/03/18 00:58:43;;;;;;;10.32;6.13;;;;;;;-0.07;80.64;96135.69;5052273;28;19928;-48
2021/03/18 01:01:14;;;;;;;11.20;7.38;;;;;;;-0.14;80.53;96146.56;5039587;28;20052;-49
2021/03/18 01:03:41;;;;;;;13.18;7.07;;;;;;;-0.13;80.82;96142.06;5049528;28;20048;-45
2021/03/18 01:06:12;;;;;;;13.98;7.90;;;;;;;-0.25;81.02;96137.75;5064844;28;20056;-47
2021/03/18 01:08:50;;;;;;;12.07;6.93;;;;;;;-0.30;81.44;96142.22;5051745;28;20416;-46
2021/03/18 01:11:22;;;;;;;11.25;7.03;;;;;;;-0.44;82.27;96144.56;5031443;28;20131;-45
2021/03/18 01:13:52;;;;;;;14.33;7.63;;;;;;;-0.30;81.78;96137.72;5045170;28;20052;-48
2021/03/18 01:16:21;;;;;;;12.95;7.22;;;;;;;-0.04;80.27;96143.97;5069413;28;20098;-46
2021/03/18 01:18:51;;;;;;;12.15;7.50;;;;;;;-0.35;80.89;96131.59;5047757;28;20052;-47
2021/03/18 01:21:19;;;;;;;9.73;6.38;;;;;;;-0.55;81.63;96132.28;5030118;28;20099;-45
2021/03/18 01:23:47;;;;;;;13.60;7.22;;;;;;;-0.63;81.92;96144.16;5049509;28;20082;-47
2021/03/18 01:26:14;;;;;;;10.88;6.90;;;;;;;-0.48;81.73;96141.63;5071645;28;20052;-46
2021/03/18 01:28:41;;;;;;;13.45;7.22;;;;;;;-0.50;81.42;96138.41;5058255;28;20481;-45
2021/03/18 01:31:09;;;;;;;14.02;7.15;;;;;;;-0.50;81.35;96138.41;5031780;28;20053;-46
2021/03/18 01:33:37;;;;;;;12.38;6.82;;;;;;;-0.43;81.03;96143.50;5065685;28;20048;-47
2021/03/18 01:36:07;;;;;;;10.75;6.80;;;;;;;-0.45;nan;96135.00;5064498;28;20041;-47
2021/03/18 01:38:35;;;;;;;14.48;7.47;;;;;;;-0.49;81.34;96133.88;5050879;28;20386;-44
2021/03/18 01:41:02;;;;;;;14.35;7.72;;;;;;;-0.42;81.11;96131.81;5049311;28;20504;-46
2021/03/18 01:43:29;;;;;;;12.90;7.15;;;;;;;-0.36;81.08;96133.41;5049206;28;20052;-46
2021/03/18 01:45:57;;;;;;;15.32;7.00;;;;;;;-0.40;80.11;96132.34;5055187;28;20064;-43
2021/03/18 01:48:24;;;;;;;12.80;7.32;;;;;;;-0.60;80.41;96132.22;5070226;28;20463;-47
2021/03/18 01:50:50;;;;;;;11.52;6.72;;;;;;;-0.69;81.94;96134.56;5057354;28;20049;-47
2021/03/18 01:53:20;;;;;;;12.90;7.18;;;;;;;-0.50;80.51;96132.28;5050138;28;20045;-46
2021/03/18 01:55:47;;;;;;;13.25;7.72;;;;;;;-0.65;80.81;96134.84;5051515;28;20176;-45
2021/03/18 01:58:15;;;;;;;14.07;7.00;;;;;;;-0.48;80.60;96127.53;5071024;28;20712;-43
2021/03/18 02:00:44;;;;;;;13.00;6.78;;;;;;;-0.66;81.17;96133.25;5055293;28;20057;-44
2021/03/18 02:03:11;;;;;;;16.13;8.18;;;;;;;-0.44;80.36;96135.78;5038535;28;20079;-45
2021/03/18 02:05:39;;;;;;;14.15;8.52;;;;;;;-0.38;79.33;96130.25;5068740;28;20421;-45
2021/03/18 02:08:06;;;;;;;15.52;7.60;;;;;;;-0.21;78.59;96123.94;5066713;28;20061;-46
2021/03/18 02:10:34;;;;;;;16.20;7.95;;;;;;;-0.56;79.50;96122.69;5040576;28;20129;-44
2021/03/18 02:13:01;;;;;;;15.73;7.82;;;;;;;-0.55;79.20;96124.31;5030971;28;20130;-46
2021/03/18 02:15:34;;;;;;;16.10;7.78;;;;;;;-0.49;78.83;96118.75;5031020;28;20518;-45
2021/03/18 02:18:22;;;;;;;12.65;7.03;;;;;;;-0.76;79.94;96121.50;5030914;28;20063;-46
2021/03/18 02:21:32;;;;;;;12.50;7.28;;;;;;;-0.53;79.28;96122.16;5041300;28;20073;-45
2021/03/18 02:24:04;;;;;;;13.48;6.93;;;;;;;-0.50;79.05;96109.16;5056716;28;20128;-46
2021/03/18 02:26:37;;;;;;;17.00;8.25;;;;;;;-0.67;79.59;96118.38;5050931;28;20107;-45
2021/03/18 02:29:27;;;;;;;15.35;7.55;;;;;;;-0.65;79.96;96124.22;5044575;28;20135;-50
2021/03/18 02:32:29;;;;;;;17.15;7.93;;;;;;;-0.86;80.55;96120.63;5049922;28;20059;-45
2021/03/18 02:35:15;;;;;;;17.02;8.20;;;;;;;-0.75;80.16;96125.78;5060081;28;20578;-44
2021/03/18 02:37:47;;;;;;;15.68;8.07;;;;;;;-0.82;80.78;96122.50;5066158;28;20072;-45
2021/03/18 02:40:17;;;;;;;17.43;7.80;;;;;;;-0.92;80.64;96124.31;5048407;28;20060;-46
2021/03/18 02:42:51;;;;;;;18.30;8.63;;;;;;;-0.76;80.20;96129.47;5050870;28;20150;-45
2021/03/18 02:45:20;;;;;;;17.38;8.50;;;;;;;-0.86;80.00;96126.75;5051169;28;20049;-47
2021/03/18 02:47:50;;;;;;;17.42;9.18;;;;;;;-1.04;81.01;96127.13;5047190;28;20076;-48
2021/03/18 02:50:17;;;;;;;19.55;8.48;;;;;;;-1.00;80.73;96129.03;5044424;28;20048;-46
2021/03/18 02:52:46;;;;;;;16.88;8.43;;;;;;;-1.06;80.99;96127.38;5049847;28;20130;-46
2021/03/18 02:55:13;;;;;;;17.60;9.25;;;;;;;-1.16;81.31;96134.47;5051068;28;20073;-48
2021/03/18 02:57:42;;;;;;;18.50;8.05;;;;;;;-1.03;81.36;96136.72;5049616;28;20053;-44
2021/03/18 03:00:12;;;;;;;16.70;8.68;;;;;;;-1.05;81.13;96128.19;5047040;28;20077;-48
2021/03/18 03:02:40;;;;;;;18.30;9.32;;;;;;;-0.96;81.15;96134.63;5052060;28;20080;-48
2021/03/18 03:05:09;;;;;;;26.92;10.20;;;;;;;-1.03;81.31;96137.50;5070036;28;20444;-47
2021/03/18 03:07:36;;;;;;;17.02;8.55;;;;;;;-0.83;80.51;96138.72;5061035;28;20061;-46
2021/03/18 03:10:07;;;;;;;20.60;8.88;;;;;;;-0.90;80.58;96138.94;5044470;28;20052;-45
2021/03/18 03:12:35;;;;;;;18.75;8.57;;;;;;;-0.81;80.21;96142.72;5068605;28;20080;-46
2021/03/18 03:15:05;;;;;;;17.27;8.38;;;;;;;-0.82;80.25;96137.66;5054973;28;20118;-46
2021/03/18 03:17:34;;;;;;;15.57;8.90;;;;;;;-0.95;80.49;96142.34;5044953;28;20071;-47
2021/03/18 03:20:03;;;;;;;16.85;9.02;;;;;;;-0.92;81.06;96149.00;5049428;28;20053;-46
2021/03/18 03:22:33;;;;;;;18.25;9.25;;;;;;;-0.87;81.13;96145.59;5040036;28;20079;-46
2021/03/18 03:25:00;;;;;;;18.83;9.32;;;;;;;-0.73;79.75;96150.22;5069707;28;20044;-47
2021/03/18 03:27:27;;;;;;;16.42;8.60;;;;;;;-0.50;79.34;96159.66;5074286;28;20433;-48
2021/03/18 03:29:54;;;;;;;19.58;9.73;;;;;;;-0.53;79.01;96159.38;5050371;28;20057;-45
2021/03/18 03:32:21;;;;;;;19.83;9.07;;;;;;;-0.69;79.17;96155.81;5033750;28;20041;-47
2021/03/18 03:34:48;;;;;;;20.55;10.32;;;;;;;-0.81;80.00;96163.97;5058477;28;20534;-46
2021/03/18 03:37:15;;;;;;;19.70;10.57;;;;;;;-0.73;79.82;96166.16;5073687;28;20372;-46
2021/03/18 03:39:42;;;;;;;17.20;8.95;;;;;;;-0.86;80.37;96163.13;5052852;28;20133;-47
2021/03/18 03:42:10;;;;;;;18.17;9.05;;;;;;;-0.89;80.17;96172.41;5048378;28;20060;-44
2021/03/18 03:44:40;;;;;;;19.73;9.93;;;;;;;-0.88;80.16;96170.53;5057251;28;20048;-46
2021/03/18 03:47:08;;;;;;;18.92;9.80;;;;;;;-1.09;80.75;96169.56;5072925;28;20048;-46
2021/03/18 03:49:37;;;;;;;18.27;10.27;;;;;;;-1.03;80.78;96179.19;5070037;28;20064;-46
2021/03/18 03:52:22;;;;;;;16.48;9.07;;;;;;;-0.92;80.38;96172.09;5037439;28;20049;-45
2021/03/18 03:55:03;;;;;;;18.65;9.95;;;;;;;-0.86;80.38;96181.72;5046341;28;20413;-48
2021/03/18 03:57:49;;;;;;;18.50;10.27;;;;;;;-1.09;80.66;96174.88;5053624;28;20524;-45
2021/03/18 04:00:16;;;;;;;20.90;11.40;;;;;;;-1.18;81.01;96167.38;5037812;28;20049;-47
2021/03/18 04:02:57;;;;;;;21.55;10.40;;;;;;;-1.17;81.18;96173.47;5033659;28;20057;-45
2021/03/18 04:05:27;;;;;;;19.27;9.93;;;;;;;-1.24;82.08;96175.53;5033601;28;20439;-46
2021/03/18 04:07:59;;;;;;;19.27;10.20;;;;;;;-1.12;81.28;96183.34;5032193;28;20049;-47
2021/03/18 04:10:28;;;;;;;23.48;11.48;;;;;;;-1.12;81.15;96172.72;5033158;28;20095;-45
2021/03/18 04:12:57;;;;;;;18.17;10.15;;;;;;;-1.12;81.49;96183.34;5033340;28;20475;-47
2021/03/18 04:15:27;;;;;;;18.83;10.45;;;;;;;-1.32;82.24;96189.28;5070025;28;20060;-46
2021/03/18 04:17:55;;;;;;;21.08;10.35;;;;;;;-1.26;82.42;96190.94;5042213;28;20430;-44
2021/03/18 04:20:24;;;;;;;19.80;9.85;;;;;;;-1.00;81.12;96184.81;5048167;28;20157;-44
2021/03/18 04:22:53;;;;;;;20.63;10.68;;;;;;;-1.13;81.26;96179.09;5033137;28;20152;-44
2021/03/18 04:25:22;;;;;;;23.05;12.15;;;;;;;-1.03;81.50;96180.00;5033137;28;20072;-47
2021/03/18 04:27:51;;;;;;;21.10;11.13;;;;;;;-1.10;82.08;96181.25;5032651;28;20053;-45
2021/03/18 04:30:19;;;;;;;19.02;10.27;;;;;;;-0.91;80.80;96189.63;5052328;28;20107;-46
2021/03/18 04:32:48;;;;;;;22.23;10.60;;;;;;;-0.79;80.74;96187.63;5052996;28;20053;-46
2021/03/18 04:35:16;;;;;;;23.60;10.65;;;;;;;-0.80;80.38;96188.69;5071229;28;20422;-43
2021/03/18 04:37:44;;;;;;;19.60;10.65;;;;;;;-0.91;81.05;96185.16;5053491;28;20057;-46
2021/03/18 04:40:13;;;;;;;23.02;10.75;;;;;;;-0.77;80.39;96186.31;5066766;28;20394;-45
2021/03/18 04:42:40;;;;;;;21.58;10.20;;;;;;;-0.81;80.63;96182.56;5072724;28;20052;-45
2021/03/18 04:45:08;;;;;;;24.15;12.35;;;;;;;-0.98;80.79;96185.34;5042894;28;20049;-47
2021/03/18 04:47:38;;;;;;;21.58;11.40;;;;;;;-1.07;81.26;96184.22;5032187;28;20430;-47
2021/03/18 04:50:10;;;;;;;23.63;11.65;;;;;;;-1.13;81.09;96182.56;5062344;28;20098;-45
2021/03/18 04:52:39;;;;;;;23.10;11.88;;;;;;;-1.23;81.73;96185.91;5045359;28;20056;-46
2021/03/18 04:55:09;;;;;;;25.80;13.13;;;;;;;-1.03;81.75;96184.50;5067528;28;20398;-47
2021/03/18 04:57:45;;;;;;;23.30;11.77;;;;;;;-1.15;81.71;96189.97;5070205;28;20044;-46
2021/03/18 05:00:12;;;;;;;26.58;12.18;;;;;;;-1.26;82.07;96188.28;5064691;28;20114;-46
2021/03/18 05:02:42;;;;;;;25.25;12.02;;;;;;;-1.36;82.42;96186.31;5057534;28;20052;-46
2021/03/18 05:05:15;;;;;;;25.38;12.40;;;;;;;-1.28;82.85;96180.56;5051936;28;20041;-47
2021/03/18 05:07:45;;;;;;;24.05;12.63;;;;;;;-1.27;82.67;96178.69;5050575;28;20049;-48
2021/03/18 05:10:15;;;;;;;20.90;11.15;;;;;;;-1.27;82.93;96182.16;5030635;28;20049;-45
2021/03/18 05:12:42;;;;;;;27.35;12.73;;;;;;;-1.20;82.27;96187.28;5032039;28;20084;-46
2021/03/18 05:15:12;;;;;;;25.58;12.05;;;;;;;-1.27;82.68;96170.72;5043828;28;20095;-45
2021/03/18 05:17:39;;;;;;;24.00;12.02;;;;;;;-1.24;83.20;96184.28;5050302;28;20094;-47
2021/03/18 05:20:10;;;;;;;22.17;11.65;;;;;;;-1.15;82.50;96181.19;5048813;28;20122;-47
2021/03/18 05:22:38;;;;;;;24.02;12.13;;;;;;;-1.13;83.07;96176.44;5031961;28;20049;-46
2021/03/18 05:25:08;;;;;;;24.40;13.38;;;;;;;-1.11;82.58;96180.44;5031811;28;20053;-46
2021/03/18 05:27:37;;;;;;;26.20;13.30;;;;;;;-1.33;82.94;96182.34;5041113;28;20127;-46
2021/03/18 05:30:06;;;;;;;25.42;12.05;;;;;;;-1.36;83.27;96172.25;5060944;28;20049;-47
2021/03/18 05:32:33;;;;;;;24.17;12.40;;;;;;;-1.26;83.37;96183.75;5070328;28;20464;-45
2021/03/18 05:35:00;;;;;;;23.55;12.82;;;;;;;-1.15;83.43;96181.19;5071294;28;20147;-47
2021/03/18 05:37:26;;;;;;;24.55;12.80;;;;;;;-0.93;82.66;96191.75;5057431;28;20053;-49
2021/03/18 05:39:53;;;;;;;25.05;12.90;;;;;;;-1.25;83.26;96188.00;5051300;28;20053;-49
2021/03/18 05:42:19;;;;;;;29.00;13.10;;;;;;;-1.27;84.09;96191.97;5061276;28;20052;-46
2021/03/18 05:44:46;;;;;;;29.02;14.60;;;;;;;-1.18;84.55;96191.25;5062146;28;20053;-45
2021/03/18 05:47:13;;;;;;;25.95;13.18;;;;;;;-1.10;83.47;96194.53;5057841;28;20203;-45
2021/03/18 05:49:43;;;;;;;24.77;13.07;;;;;;;-0.97;83.52;96197.56;5071323;28;20567;-44
2021/03/18 05:52:11;;;;;;;26.48;14.25;;;;;;;-1.04;83.28;96196.16;5048082;28;20058;-46
2021/03/18 05:54:46;;;;;;;26.02;14.20;;;;;;;-1.16;84.29;96195.53;5059108;28;20505;-46
2021/03/18 05:57:15;;;;;;;26.02;13.77;;;;;;;-1.22;84.58;96190.16;5070231;28;20185;-46
2021/03/18 05:59:44;;;;;;;30.17;13.77;;;;;;;-1.05;84.12;96191.91;5046525;28;20052;-45
2021/03/18 06:02:10;;;;;;;27.35;14.68;;;;;;;-1.15;84.65;96194.47;5031473;28;20061;-44
2021/03/18 06:04:38;;;;;;;28.55;14.05;;;;;;;-0.98;84.33;96192.50;5030237;28;20045;-46
2021/03/18 06:07:06;;;;;;;31.85;15.40;;;;;;;-1.25;84.65;96195.19;5039494;28;20065;-47
2021/03/18 06:09:34;;;;;;;30.90;15.68;;;;;;;-1.34;85.46;96189.50;5070835;28;20076;-45
2021/03/18 06:12:01;;;;;;;32.80;15.25;;;;;;;-1.33;85.38;96195.63;5057407;28;20056;-44
2021/03/18 06:14:28;;;;;;;32.97;16.80;;;;;;;-1.09;85.29;96194.28;5048623;28;20094;-45
2021/03/18 06:16:56;;;;;;;30.95;16.33;;;;;;;-1.03;84.91;96189.81;5031230;28;20233;-45
2021/03/18 06:19:23;;;;;;;32.58;15.73;;;;;;;-0.90;84.27;96196.56;5031320;28;20049;-49
2021/03/18 06:21:56;;;;;;;30.02;15.07;;;;;;;-0.81;83.84;96195.84;5039605;28;20111;-46
2021/03/18 06:24:24;;;;;;;30.85;15.55;;;;;;;-0.72;83.60;96193.50;5050133;28;20571;-45
2021/03/18 06:26:52;;;;;;;30.42;14.65;;;;;;;-0.72;83.40;96194.31;5049329;28;20056;-47
2021/03/18 06:29:36;;;;;;;31.10;15.55;;;;;;;-0.85;83.19;96196.59;5045291;28;20069;-46
2021/03/18 06:32:16;;;;;;;31.50;16.50;;;;;;;-1.17;84.41;96197.38;5049635;28;20045;-45
2021/03/18 06:34:54;;;;;;;31.27;16.85;;;;;;;-1.10;84.07;96198.00;5050824;28;20061;-48
2021/03/18 06:37:34;;;;;;;33.83;16.73;;;;;;;-0.95;83.76;96195.44;5049916;28;20056;-46
2021/03/18 06:40:18;;;;;;;29.45;14.98;;;;;;;-0.86;84.48;96193.16;5036681;28;20049;-45
2021/03/18 06:42:58;;;;;;;32.25;16.23;;;;;;;-0.61;83.18;96191.75;5031130;28;20061;-45
2021/03/18 06:45:30;;;;;;;33.13;16.73;;;;;;;-0.78;83.42;96197.19;5036960;28;20049;-43
2021/03/18 06:48:15;;;;;;;30.70;15.68;;;;;;;-0.85;83.48;96205.38;5047956;28;20053;-47
2021/03/18 06:50:46;;;;;;;33.75;16.65;;;;;;;-0.83;83.57;96195.28;5036155;28;20057;-46
2021/03/18 06:53:23;;;;;;;30.88;16.73;;;;;;;-0.65;83.13;96193.31;5039377;28;20045;-44
2021/03/18 06:55:53;;;;;;;31.63;17.50;;;;;;;-0.66;82.87;96192.50;5061698;28;20055;-45
2021/03/18 06:58:27;;;;;;;32.95;15.82;;;;;;;-0.63;82.77;96197.31;5074945;28;20052;-45
2021/03/18 07:01:05;;;;;;;30.02;15.90;;;;;;;-0.75;82.65;96194.84;5055576;28;20044;-44
2021/03/18 07:03:39;;;;;;;30.65;16.55;;;;;;;-0.77;82.79;96201.47;5073564;28;20049;-46
2021/03/18 07:06:09;;;;;;;33.10;16.60;;;;;;;-0.78;82.78;96200.66;5076615;28;20056;-45
2021/03/18 07:08:37;;;;;;;31.48;15.85;;;;;;;-0.73;82.45;96197.25;5052341;28;20064;-52
2021/03/18 07:11:19;;;;;;;33.00;16.20;;;;;;;-0.69;82.73;96193.00;5041708;28;20528;-45
2021/03/18 07:13:46;;;;;;;29.70;16.13;;;;;;;-0.59;81.70;96197.59;5070182;28;20082;-45
2021/03/18 07:16:13;;;;;;;31.00;16.38;;;;;;;-0.33;80.98;96198.56;5060845;28;20418;-45
2021/03/18 07:18:41;;;;;;;33.78;17.42;;;;;;;-0.28;81.81;96210.06;5032943;28;20057;-46
2021/03/18 07:21:13;;;;;;;34.70;17.33;;;;;;;-0.09;80.50;96204.31;5037461;28;20045;-49
2021/03/18 07:23:44;;;;;;;35.00;17.63;;;;;;;0.10;79.79;96202.84;5054511;28;20053;-45
2021/03/18 07:26:20;;;;;;;34.00;17.33;;;;;;;0.15;80.30;96197.53;5054046;28;20065;-47
2021/03/18 07:28:52;;;;;;;33.28;18.27;;;;;;;-0.21;79.54;96195.75;5051494;28;20458;-44
2021/03/18 07:31:21;;;;;;;31.25;16.95;;;;;;;-0.46;80.88;96202.47;5073806;28;20052;-45
2021/03/18 07:33:48;;;;;;;30.85;16.83;;;;;;;-0.42;80.97;96198.28;5074427;28;20106;-48
2021/03/18 07:36:16;;;;;;;33.88;17.52;;;;;;;-0.29;80.52;96192.50;5056572;28;20110;-46
2021/03/18 07:38:44;;;;;;;30.88;16.88;;;;;;;-0.04;81.57;96189.19;5034221;28;20053;-47
2021/03/18 07:41:14;;;;;;;33.75;17.10;;;;;;;0.04;80.31;96192.44;5055972;28;20422;-44
2021/03/18 07:43:43;;;;;;;33.58;18.02;;;;;;;0.29;79.45;96197.84;5073621;28;20052;-46
2021/03/18 07:46:18;;;;;;;32.80;16.08;;;;;;;-0.06;79.71;96196.63;5050556;28;20037;-45
2021/03/18 07:48:50;;;;;;;31.10;17.77;;;;;;;-0.21;79.86;96203.72;5034406;28;20061;-45
2021/03/18 07:51:17;;;;;;;35.40;18.58;;;;;;;0.01;81.06;96203.59;5055424;28;20045;-44
2021/03/18 07:53:56;;;;;;;34.10;17.40;;;;;;;-0.11;80.47;96198.44;5043656;28;20057;-49
2021/03/18 07:56:23;;;;;;;33.20;15.75;;;;;;;-0.27;80.98;96208.19;5039818;28;20090;-46
2021/03/18 07:58:50;;;;;;;31.33;17.42;;;;;;;0.18;80.41;96204.19;5052999;28;20119;-45
2021/03/18 08:01:36;;;;;;;30.25;16.85;;;;;;;0.04;81.03;96200.41;5051854;28;20053;-45
2021/03/18 08:04:08;;;;;;;29.80;15.25;;;;;;;-0.12;80.87;96200.31;5050976;28;20065;-49
2021/03/18 08:06:50;;;;;;;30.15;15.95;;;;;;;0.08;80.35;96190.84;5053870;28;20537;-45
2021/03/18 08:09:25;;;;;;;31.02;16.10;;;;;;;-0.02;82.08;96203.03;5053210;28;20402;-44
2021/03/18 08:11:53;;;;;;;29.05;15.13;;;;;;;0.23;81.13;96202.38;5050112;28;20114;-47
2021/03/18 08:14:21;;;;;;;25.15;14.82;;;;;;;0.70;79.14;96201.44;5052192;28;20157;-44
2021/03/18 08:16:47;;;;;;;30.40;17.20;;;;;;;0.93;76.78;96196.69;5052340;28;20045;-45
2021/03/18 08:19:16;;;;;;;28.85;16.30;;;;;;;0.50;78.20;96201.41;5048040;28;20051;-52
2021/03/18 08:21:45;;;;;;;27.67;14.43;;;;;;;0.55;77.92;96201.41;5049601;28;20131;-45
2021/03/18 08:24:13;;;;;;;31.65;16.67;;;;;;;0.40;78.66;96199.50;5049128;28;20497;-46
2021/03/18 08:26:44;;;;;;;29.48;15.57;;;;;;;0.76;76.89;96201.47;5053086;28;20458;-45
2021/03/18 08:29:37;;;;;;;27.77;15.55;;;;;;;1.13;76.62;96196.72;5060714;28;20480;-50
2021/03/18 08:32:06;;;;;;;26.77;15.18;;;;;;;1.13;75.13;96196.72;5026779;28;20064;-47
2021/03/18 08:35:09;;;;;;;24.52;14.77;;;;;;;1.33;76.07;96195.97;5055196;28;20064;-47
2021/03/18 08:38:14;;;;;;;29.15;17.10;;;;;;;1.53;73.82;96189.81;4977363;28;20443;-48
2021/03/18 08:40:40;;;;;;;28.67;16.05;;;;;;;1.18;74.93;96198.59;5049213;28;20040;-48
2021/03/18 08:43:08;;;;;;;25.35;15.05;;;;;;;1.28;74.31;96200.47;5050939;28;20048;-49
2021/03/18 08:45:38;;;;;;;25.08;14.20;;;;;;;1.45;72.94;96192.22;5055435;28;20052;-47
2021/03/18 08:48:15;;;;;;;25.63;14.57;;;;;;;1.37;74.73;96196.22;5067419;28;20056;-47
2021/03/18 08:50:42;;;;;;;24.42;13.75;;;;;;;0.89;75.96;96196.44;5058056;28;20099;-46
2021/03/18 08:53:29;;;;;;;22.98;13.55;;;;;;;1.63;72.43;96200.47;5054969;28;20049;-47
2021/03/18 08:55:56;;;;;;;25.10;13.95;;;;;;;1.45;73.24;96198.34;5048770;28;20136;-48
2021/03/18 08:58:23;;;;;;;24.38;13.57;;;;;;;1.30;72.20;96199.16;5051608;28;20052;-47
2021/03/18 09:00:49;;;;;;;24.30;14.07;;;;;;;0.86;73.55;96198.81;5048862;28;20052;-47
2021/03/18 09:03:21;;;;;;;22.92;13.55;;;;;;;1.14;73.32;96193.00;5051655;28;20152;-45
2021/03/18 09:05:50;;;;;;;23.08;13.43;;;;;;;1.70;71.60;96194.06;5052161;28;20395;-47
2021/03/18 09:08:26;;;;;;;23.92;13.43;;;;;;;1.80;70.98;96188.72;5051481;28;20076;-51
2021/03/18 09:10:54;;;;;;;23.17;12.45;;;;;;;1.71;70.30;96193.78;5053769;28;20114;-47
2021/03/18 09:13:35;;;;;;;25.23;13.30;;;;;;;1.63;72.20;96199.66;5061899;28;20052;-49
2021/03/18 09:16:02;;;;;;;22.50;12.52;;;;;;;1.70;72.01;96188.72;5066914;28;20048;-50
2021/03/18 09:18:33;;;;;;;22.00;12.90;;;;;;;1.56;71.98;96197.28;5052820;28;20095;-48
2021/03/18 09:21:12;;;;;;;24.88;13.85;;;;;;;1.88;72.75;96196.16;5055543;28;20068;-47
2021/03/18 09:23:42;;;;;;;21.55;12.77;;;;;;;1.86;70.98;96198.31;5047104;28;20053;-47
2021/03/18 09:26:12;;;;;;;25.75;13.65;;;;;;;2.02;70.74;96181.19;5056837;28;20497;-49
2021/03/18 09:28:51;;;;;;;24.20;12.68;;;;;;;1.70;71.91;96183.41;5049627;28;20048;-47
2021/03/18 09:31:25;;;;;;;21.80;13.18;;;;;;;1.78;70.88;96182.84;5060581;28;20132;-47
2021/03/18 09:33:54;;;;;;;24.40;13.98;;;;;;;1.91;72.92;96182.25;5057670;28;20464;-52
2021/03/18 09:36:27;;;;;;;20.45;12.63;;;;;;;2.05;72.03;96174.50;5061821;28;20514;-52
2021/03/18 09:38:59;;;;;;;25.92;13.88;;;;;;;1.96;71.34;96182.25;5057786;28;20059;-51
2021/03/18 09:41:30;;;;;;;24.00;14.70;;;;;;;1.92;70.57;96185.72;5064028;28;20068;-48
2021/03/18 09:44:10;;;;;;;21.58;13.80;;;;;;;1.59;68.90;96177.25;5057625;28;20178;-51
2021/03/18 09:46:39;;;;;;;26.30;16.20;;;;;;;1.48;71.83;96181.81;5058637;28;20083;-50
2021/03/18 09:49:07;;;;;;;24.25;14.75;;;;;;;1.41;71.95;96178.63;5058772;28;20077;-46
2021/03/18 09:51:40;;;;;;;25.70;15.60;;;;;;;1.56;72.21;96175.94;5047981;28;20067;-48
2021/03/18 09:54:09;;;;;;;23.52;14.95;;;;;;;1.33;72.02;96179.13;5052372;28;20056;-48
2021/03/18 09:56:38;;;;;;;26.13;17.02;;;;;;;1.56;72.04;96173.28;5052775;28;20055;-47
2021/03/18 09:59:06;;;;;;;30.30;16.38;;;;;;;1.67;71.98;96165.25;5059358;28;20072;-45
2021/03/18 10:01:33;;;;;;;25.40;15.48;;;;;;;1.76;69.72;96151.09;5055233;28;20418;-48
2021/03/18 10:04:04;;;;;;;22.17;14.15;;;;;;;2.03;68.93;96165.97;5059395;28;20117;-48
2021/03/18 10:06:40;;;;;;;21.45;12.20;;;;;;;2.01;68.58;96160.09;5052461;28;20135;-46
2021/03/18 10:09:31;;;;;;;19.80;11.68;;;;;;;2.31;65.12;96151.19;5046593;28;20461;-51
2021/03/18 10:11:59;;;;;;;17.17;11.30;;;;;;;2.16;65.57;96146.69;5066532;28;20131;-48
2021/03/18 10:14:29;;;;;;;18.15;11.88;;;;;;;2.27;64.26;96147.44;5062370;28;20532;-47
2021/03/18 10:17:22;;;;;;;17.15;10.30;;;;;;;1.74;64.86;96147.09;5060097;28;20042;-47
2021/03/18 10:19:54;;;;;;;17.15;9.73;;;;;;;1.86;65.11;96134.28;5051244;28;20045;-49
2021/03/18 10:22:24;;;;;;;17.60;9.73;;;;;;;2.12;65.79;96136.84;5052129;28;20110;-47
2021/03/18 10:25:04;;;;;;;16.75;9.52;;;;;;;2.00;64.13;96134.50;5074880;28;20143;-49
2021/03/18 10:27:33;;;;;;;15.90;9.02;;;;;;;1.87;64.55;96125.97;5055904;28;20616;-50
2021/03/18 10:30:08;;;;;;;16.95;10.48;;;;;;;1.91;64.50;96131.56;5042408;28;20045;-50
2021/03/18 10:32:37;;;;;;;18.58;10.52;;;;;;;1.74;65.35;96123.09;5055288;28;20057;-47
2021/03/18 10:35:07;;;;;;;15.50;9.82;;;;;;;1.92;65.33;96119.03;5055076;28;20049;-48
2021/03/18 10:37:39;;;;;;;16.25;10.10;;;;;;;2.04;65.29;96119.53;5052099;28;20052;-47
2021/03/18 10:40:08;;;;;;;13.97;10.00;;;;;;;2.29;62.59;96121.28;5060267;28;20110;-48
2021/03/18 10:42:34;;;;;;;14.80;9.00;;;;;;;2.37;61.57;96117.22;5052520;28;20317;-49
2021/03/18 10:45:24;;;;;;;14.63;8.77;;;;;;;2.38;61.56;96114.31;5062679;28;21044;-48
2021/03/18 10:48:19;;;;;;;15.32;8.30;;;;;;;2.57;61.27;96109.13;5041166;28;20060;-47
2021/03/18 10:50:46;;;;;;;16.77;9.43;;;;;;;2.43;61.97;96100.91;5048763;28;20068;-48
2021/03/18 10:53:14;;;;;;;14.63;8.73;;;;;;;2.44;62.72;96097.19;5053197;28;20067;-47
2021/03/18 10:55:53;;;;;;;16.50;9.07;;;;;;;2.41;62.15;96095.06;5064048;28;20049;-48
2021/03/18 10:58:23;;;;;;;12.40;7.82;;;;;;;3.13;60.85;96091.88;5056520;28;20096;-48
2021/03/18 11:00:58;;;;;;;14.73;7.65;;;;;;;3.14;59.04;96090.81;5044565;28;20045;-47
2021/03/18 11:03:40;;;;;;;13.00;8.48;;;;;;;2.60;60.78;96097.06;5068645;28;20057;-48
2021/03/18 11:06:20;;;;;;;12.88;7.82;;;;;;;2.24;61.42;96091.94;5068445;28;20056;-48
2021/03/18 11:08:50;;;;;;;11.75;7.93;;;;;;;2.17;61.12;96091.44;5043805;28;20498;-46
2021/03/18 11:11:18;;;;;;;12.18;7.07;;;;;;;2.24;60.21;96098.09;5053913;28;20171;-47
2021/03/18 11:13:45;;;;;;;12.20;7.25;;;;;;;2.18;60.32;96098.38;5056190;28;20056;-46
2021/03/18 11:16:20;;;;;;;11.90;7.53;;;;;;;2.64;59.66;96095.47;5037332;28;20052;-48
2021/03/18 11:18:48;;;;;;;12.07;7.65;;;;;;;2.37;58.15;96083.31;5036091;28;20090;-48
2021/03/18 11:21:29;;;;;;;11.20;7.20;;;;;;;2.48;58.84;96082.19;5058134;28;20079;-50
2021/03/18 11:24:09;;;;;;;11.05;6.50;;;;;;;2.24;60.03;96075.91;5058830;28;20117;-50
2021/03/18 11:26:37;;;;;;;11.80;6.35;;;;;;;2.47;58.64;96077.13;5057944;28;20091;-48
2021/03/18 11:29:10;;;;;;;12.48;7.35;;;;;;;2.76;59.14;96071.84;5056321;28;20045;-47
2021/03/18 11:31:42;;;;;;;16.23;8.87;;;;;;;2.38;61.37;96078.81;5050440;28;20072;-48
2021/03/18 11:34:14;;;;;;;13.65;7.07;;;;;;;2.47;60.09;96075.28;5055532;28;21001;-50
2021/03/18 11:36:42;;;;;;;11.52;7.43;;;;;;;2.70;60.97;96067.66;5047051;28;20152;-49
2021/03/18 11:39:08;;;;;;;15.32;7.68;;;;;;;3.01;58.05;96062.84;5055922;28;20048;-46
2021/03/18 11:41:52;;;;;;;11.68;7.30;;;;;;;2.68;59.67;96061.78;5043590;28;20474;-49
2021/03/18 11:44:19;;;;;;;14.10;7.63;;;;;;;3.31;58.17;96048.38;5048763;28;20391;-45